Time;durP1;ratioP1;P1;durP2;ratioP2;P2;SDS_P1;SDS_P2;PMS_P1;PMS_P2;Temp;Humidity;BMP_temperature;BMP_pressure;BME280_temperature;BME280_humidity;BME280_pressure;Samples;Min_cycle;Max_cycle;Signal;HPM_P1;HPM_P2
2023/12/18 00:02:41;;;;;;;108.75;58.22;;;;;;;-1.38;91.58;99549.84;10364535;28;20033;-48
2023/12/18 00:07:40;;;;;;;111.63;58.00;;;;;;;-1.70;91.46;99485.59;10364472;28;20040;-48
2023/12/18 00:12:39;;;;;;;98.63;54.72;;;;;;;-1.53;91.53;99519.94;10364442;28;20029;-48
2023/12/18 00:17:38;;;;;;;99.38;53.60;;;;;;;-1.62;90.88;99501.44;10367162;28;20028;-48
2023/12/18 00:22:37;;;;;;;91.85;51.10;;;;;;;-2.37;91.31;99381.31;10372479;28;20082;-48
2023/12/18 00:27:36;;;;;;;83.35;45.88;;;;;;;-1.56;91.51;99532.44;10372330;28;20037;-48
2023/12/18 00:32:35;;;;;;;86.57;46.72;;;;;;;-1.95;91.14;99509.94;10371741;28;20112;-50
2023/12/18 00:37:34;;;;;;;110.45;56.78;;;;;;;-2.63;90.78;99425.94;10372036;28;20036;-48
2023/12/18 00:42:33;;;;;;;;;;;;;;;-2.09;92.35;99525.03;10372035;28;20116;-49
2023/12/18 00:47:31;;;;;;;79.70;43.15;;;;;;;-2.41;92.01;99486.06;10367006;28;19990;-48
2023/12/18 00:52:30;;;;;;;93.53;47.03;;;;;;;-2.57;92.19;99448.38;10371333;28;20017;-49
2023/12/18 00:57:29;;;;;;;83.90;47.42;;;;;;;-2.42;91.67;99457.22;10368869;28;20033;-48
2023/12/18 01:02:28;;;;;;;139.80;81.03;;;;;;;-2.11;91.15;99500.25;10369985;28;20021;-49
2023/12/18 01:07:29;;;;;;;104.10;59.33;;;;;;;-2.20;92.05;99485.16;10370589;28;20029;-49
2023/12/18 01:12:28;;;;;;;103.53;56.67;;;;;;;-2.31;92.01;99470.78;10370597;28;20753;-49
2023/12/18 01:17:27;;;;;;;100.55;57.78;;;;;;;-2.06;92.18;99494.72;10370351;28;20507;-48
2023/12/18 01:22:26;;;;;;;106.60;54.67;;;;;;;-2.21;91.83;99446.94;10370244;28;20124;-51
2023/12/18 01:27:25;;;;;;;86.63;47.47;;;;;;;-2.21;92.33;99450.34;10369190;28;20128;-50
2023/12/18 01:32:24;;;;;;;86.43;45.28;;;;;;;-2.19;91.81;99431.00;10368955;28;20040;-49
2023/12/18 01:37:23;;;;;;;;;;;;;;;-1.87;92.27;99471.59;10370385;28;20064;-49
2023/12/18 01:42:22;;;;;;;74.30;42.97;;;;;;;-2.47;91.57;99359.38;10369339;28;19923;-48
2023/12/18 01:47:21;;;;;;;79.90;45.58;;;;;;;-2.02;91.43;99450.09;10369526;28;20028;-48
2023/12/18 01:52:20;;;;;;;68.03;37.05;;;;;;;-2.47;91.75;99379.72;10368535;28;20120;-49
2023/12/18 01:57:20;;;;;;;74.13;40.22;;;;;;;-2.02;91.61;99451.75;10368789;28;20057;-49
2023/12/18 02:02:19;;;;;;;76.78;42.20;;;;;;;-2.08;91.23;99463.25;10366918;28;20128;-51
2023/12/18 02:07:18;;;;;;;;;;;;;;;-2.19;91.62;99459.00;10368663;28;20060;-49
2023/12/18 02:12:17;;;;;;;66.90;34.83;;;;;;;-2.44;91.42;99409.56;10366895;28;19912;-50
2023/12/18 02:17:16;;;;;;;70.20;35.88;;;;;;;-2.34;91.45;99414.56;10367632;28;20029;-48
2023/12/18 02:22:15;;;;;;;58.67;33.95;;;;;;;-2.22;91.34;99424.78;10367625;28;20060;-49
2023/12/18 02:27:14;;;;;;;69.57;38.47;;;;;;;-2.06;91.54;99440.44;10366324;28;20151;-49
2023/12/18 02:32:13;;;;;;;63.10;35.05;;;;;;;-2.40;91.72;99378.53;10366531;28;20115;-49
2023/12/18 02:37:11;;;;;;;69.65;39.88;;;;;;;-2.25;91.33;99396.59;10367767;28;20048;-48
2023/12/18 02:42:10;;;;;;;70.55;40.63;;;;;;;-1.94;91.30;99455.75;10366544;28;20029;-49
2023/12/18 02:47:09;;;;;;;66.70;37.00;;;;;;;-2.13;91.35;99436.53;10364252;28;20104;-49
2023/12/18 02:52:08;;;;;;;65.03;35.17;;;;;;;-2.01;91.34;99446.75;10366745;28;20020;-48
2023/12/18 02:57:07;;;;;;;61.67;35.13;;;;;;;-1.98;91.33;99441.03;10365222;28;20378;-48
2023/12/18 03:02:06;;;;;;;62.83;36.22;;;;;;;-1.94;90.33;99435.38;10366275;28;20043;-49
2023/12/18 03:07:06;;;;;;;72.03;40.72;;;;;;;-2.06;90.98;99435.34;10366498;28;20029;-49
2023/12/18 03:12:05;;;;;;;75.97;41.28;;;;;;;-2.17;91.60;99414.22;10365704;28;20045;-49
2023/12/18 03:17:04;;;;;;;;;;;;;;;-1.96;91.65;99424.22;10366539;28;20228;-49
2023/12/18 03:22:03;;;;;;;86.85;44.30;;;;;;;-2.21;91.21;99391.88;10365591;28;20610;-49
2023/12/18 03:27:01;;;;;;;;;;;;;;;-2.26;91.42;99413.53;10366352;28;20119;-49
2023/12/18 03:32:00;;;;;;;68.78;38.60;;;;;;;-2.52;90.90;99384.47;10363692;28;19986;-49
2023/12/18 03:36:59;;;;;;;66.05;36.63;;;;;;;-2.41;91.20;99397.09;10365134;28;20100;-50
2023/12/18 03:41:58;;;;;;;66.50;37.33;;;;;;;-2.50;90.75;99380.38;10365246;28;20060;-51
2023/12/18 03:46:57;;;;;;;71.22;37.50;;;;;;;-2.29;91.06;99413.25;10365362;28;20115;-50
2023/12/18 03:51:56;;;;;;;73.68;38.95;;;;;;;-2.34;91.06;99392.56;10364316;28;20094;-50
2023/12/18 03:56:55;;;;;;;69.55;36.78;;;;;;;-2.37;90.68;99369.47;10364689;28;20147;-49
2023/12/18 04:01:54;;;;;;;78.63;41.67;;;;;;;-2.21;90.55;99401.16;10364428;28;20025;-50
2023/12/18 04:06:53;;;;;;;79.80;41.20;;;;;;;-2.55;90.73;99332.50;10364912;28;20029;-50
2023/12/18 04:11:52;;;;;;;;;;;;;;;-2.22;90.67;99384.97;10365320;28;20056;-49
2023/12/18 04:16:51;;;;;;;60.70;33.67;;;;;;;-2.42;90.11;99365.69;10364111;28;19997;-49
2023/12/18 04:21:50;;;;;;;77.75;37.25;;;;;;;-2.35;90.44;99383.19;10364226;28;20033;-49
2023/12/18 04:26:49;;;;;;;78.68;40.63;;;;;;;-2.63;90.36;99334.47;10364242;28;20474;-49
2023/12/18 04:31:51;;;;;;;76.88;40.45;;;;;;;-2.96;90.75;99272.69;10363014;28;20548;-49
2023/12/18 04:36:50;;;;;;;96.03;49.75;;;;;;;-2.32;90.69;99390.16;10376700;28;20056;-50
2023/12/18 04:41:49;;;;;;;77.70;40.75;;;;;;;-2.64;90.21;99331.78;10362146;28;20029;-49
2023/12/18 04:46:48;;;;;;;69.32;37.22;;;;;;;-2.34;90.62;99404.41;10362638;28;20036;-49
2023/12/18 04:51:47;;;;;;;;;;;;;;;-2.32;89.99;99407.97;10363267;28;20065;-49
2023/12/18 04:56:46;;;;;;;61.83;32.80;;;;;;;-2.57;90.26;99367.97;10363490;28;19966;-50
2023/12/18 05:01:45;;;;;;;60.78;31.35;;;;;;;-2.58;90.14;99373.81;10362318;28;20040;-49
2023/12/18 05:06:44;;;;;;;73.50;40.28;;;;;;;-2.42;90.40;99387.69;10370315;28;20107;-48
2023/12/18 05:11:43;;;;;;;63.20;33.70;;;;;;;-2.74;90.05;99326.00;10369723;28;20023;-49
2023/12/18 05:16:42;;;;;;;144.10;65.43;;;;;;;-2.64;89.99;99363.19;10369524;28;20039;-50
2023/12/18 05:21:41;;;;;;;80.07;42.42;;;;;;;-2.82;91.28;99382.97;10368931;28;20128;-49
2023/12/18 05:26:40;;;;;;;116.47;56.97;;;;;;;-2.71;90.84;99384.69;10369784;28;20059;-49
2023/12/18 05:31:39;;;;;;;97.53;50.35;;;;;;;-2.69;90.64;99382.25;10368230;28;20039;-49
2023/12/18 05:36:37;;;;;;;100.88;52.47;;;;;;;-2.48;90.62;99410.97;10369016;28;20033;-50
2023/12/18 05:41:36;;;;;;;112.35;58.88;;;;;;;-2.55;90.33;99407.06;10368514;28;20032;-50
2023/12/18 05:46:35;;;;;;;102.65;55.92;;;;;;;-2.63;90.40;99397.13;10368499;28;20051;-49
2023/12/18 05:51:34;;;;;;;115.57;62.38;;;;;;;-2.68;90.12;99376.44;10368308;28;20476;-49
2023/12/18 05:56:33;;;;;;;115.47;61.33;;;;;;;-2.61;90.23;99387.94;10367347;28;20771;-51
2023/12/18 06:01:32;;;;;;;132.02;65.22;;;;;;;-2.39;90.07;99415.88;10367653;28;20033;-50
2023/12/18 06:06:31;;;;;;;121.40;66.78;;;;;;;-2.33;89.98;99416.38;10369111;28;20098;-50
2023/12/18 06:11:30;;;;;;;115.13;64.68;;;;;;;-2.67;89.94;99351.91;10368047;28;20906;-49
2023/12/18 06:16:29;;;;;;;;;;;;;;;-2.27;89.96;99396.47;10365109;28;20175;-50
2023/12/18 06:21:28;;;;;;;144.15;77.05;;;;;;;-2.18;89.97;99402.25;10366662;28;20011;-48
2023/12/18 06:26:27;;;;;;;168.00;90.68;;;;;;;-2.39;89.53;99391.34;10366106;28;20646;-49
2023/12/18 06:31:26;;;;;;;118.95;64.93;;;;;;;-2.50;90.33;99382.91;10366322;28;20828;-49
2023/12/18 06:36:25;;;;;;;121.80;62.83;;;;;;;-2.37;90.78;99399.97;10366431;28;20037;-49
2023/12/18 06:41:24;;;;;;;133.55;71.55;;;;;;;-2.32;90.45;99388.50;10364737;28;20124;-49
2023/12/18 06:46:23;;;;;;;130.93;72.47;;;;;;;-2.16;89.80;99404.94;10365626;28;20132;-49
2023/12/18 06:51:22;;;;;;;142.75;77.28;;;;;;;-2.39;90.25;99365.03;10361882;28;20048;-49
2023/12/18 06:56:21;;;;;;;;;;;;;;;-1.92;90.37;99404.19;10362077;28;20467;-51
2023/12/18 07:01:20;;;;;;;119.03;64.60;;;;;;;-1.79;90.61;99383.09;10363304;28;20284;-51
2023/12/18 07:06:19;;;;;;;111.38;60.28;;;;;;;-1.71;90.87;99371.81;10364259;28;20036;-50
2023/12/18 07:11:18;;;;;;;132.15;79.10;;;;;;;-1.46;90.49;99399.06;10355667;28;20051;-49
2023/12/18 07:16:23;;;;;;;121.63;69.10;;;;;;;-1.69;90.71;99349.91;10361754;28;20381;-50
2023/12/18 07:21:22;;;;;;;112.68;62.60;;;;;;;-1.38;90.05;99377.59;10360722;28;20068;-49
2023/12/18 07:26:21;;;;;;;99.07;53.55;;;;;;;-1.45;90.19;99347.38;10360907;28;20037;-49
2023/12/18 07:31:20;;;;;;;78.95;42.15;;;;;;;-1.68;90.06;99345.69;10362146;28;20112;-50
2023/12/18 07:36:19;;;;;;;80.35;42.70;;;;;;;-3.13;89.40;99138.50;10361778;28;20075;-50
2023/12/18 07:41:18;;;;;;;83.63;42.50;;;;;;;-1.72;89.76;99336.97;10362653;28;20093;-49
2023/12/18 07:46:18;;;;;;;89.25;47.92;;;;;;;-1.42;90.08;99357.78;10362274;28;20043;-49
2023/12/18 07:51:17;;;;;;;77.28;42.08;;;;;;;-0.92;90.09;99380.84;10361689;28;20523;-51
2023/12/18 07:56:16;;;;;;;79.60;42.45;;;;;;;-0.63;90.62;99380.31;10359667;28;20901;-51
2023/12/18 08:01:18;;;;;;;79.25;42.63;;;;;;;-0.85;89.30;99344.81;10360878;28;20041;-50
2023/12/18 08:06:17;;;;;;;83.65;43.67;;;;;;;-1.21;88.67;99269.28;10359257;28;20112;-52
2023/12/18 08:11:16;;;;;;;83.95;46.30;;;;;;;-0.70;89.25;99342.44;10359479;28;20091;-49
2023/12/18 08:16:15;;;;;;;90.97;49.33;;;;;;;-0.47;90.04;99346.56;10359541;28;20385;-49
2023/12/18 08:21:14;;;;;;;81.15;47.85;;;;;;;-0.30;88.99;99346.81;10358383;28;20143;-49
2023/12/18 08:26:13;;;;;;;81.13;47.10;;;;;;;-0.22;89.40;99351.66;10359652;28;20120;-49
2023/12/18 08:31:12;;;;;;;76.88;44.10;;;;;;;0.08;89.18;99371.44;10359910;28;20033;-51
2023/12/18 08:36:11;;;;;;;74.35;43.30;;;;;;;-0.03;88.59;99325.69;10360894;28;20068;-49
2023/12/18 08:41:10;;;;;;;71.30;43.33;;;;;;;0.16;87.43;99315.03;10365473;28;20032;-49
2023/12/18 08:46:09;;;;;;;74.35;42.33;;;;;;;0.46;87.65;99353.53;10366538;28;20650;-49
2023/12/18 08:51:08;;;;;;;77.70;46.10;;;;;;;0.77;88.06;99363.16;10366991;28;20417;-49
2023/12/18 08:56:07;;;;;;;74.15;44.67;;;;;;;0.83;87.65;99355.91;10366557;28;20885;-49
2023/12/18 09:01:06;;;;;;;72.65;43.40;;;;;;;1.07;87.15;99328.41;10366609;28;20460;-49
2023/12/18 09:06:05;;;;;;;77.32;46.95;;;;;;;1.32;86.51;99347.03;10368149;28;20108;-49
2023/12/18 09:11:06;;;;;;;73.13;41.60;;;;;;;1.41;85.55;99343.25;10366323;28;20028;-48
2023/12/18 09:16:06;;;;;;;71.13;41.38;;;;;;;1.61;85.21;99344.47;10365014;28;20136;-49
2023/12/18 09:21:05;;;;;;;69.93;44.55;;;;;;;1.68;85.57;99310.78;10361808;28;20674;-50
2023/12/18 09:26:04;;;;;;;77.43;50.17;;;;;;;1.94;85.27;99305.47;10365452;28;20543;-50
2023/12/18 09:31:05;;;;;;;98.38;59.50;;;;;;;2.20;85.35;99305.22;10364140;28;20053;-52
2023/12/18 09:36:07;;;;;;;83.93;51.97;;;;;;;2.31;84.10;99293.91;10355347;28;20119;-49
2023/12/18 09:41:07;;;;;;;73.38;47.65;;;;;;;2.11;82.38;99242.47;10364135;28;20091;-49
2023/12/18 09:46:06;;;;;;;70.35;43.67;;;;;;;2.43;83.70;99274.09;10364063;28;20140;-50
2023/12/18 09:51:09;;;;;;;67.38;42.35;;;;;;;2.31;83.13;99204.25;10365156;28;20033;-50
2023/12/18 09:56:10;;;;;;;46.08;29.88;;;;;;;2.66;82.26;99243.75;10355470;28;20147;-49
2023/12/18 10:01:10;;;;;;;44.35;29.23;;;;;;;2.89;80.37;99266.38;10357309;28;20116;-50
2023/12/18 10:06:09;;;;;;;46.45;30.58;;;;;;;3.01;81.34;99251.63;10359851;28;20116;-49
2023/12/18 10:11:21;;;;;;;;;;;;;;;3.19;81.88;99245.69;10379994;28;20127;-49
2023/12/18 10:16:21;;;;;;;42.22;26.80;;;;;;;3.34;81.78;99214.81;10358492;28;20380;-49
2023/12/18 10:21:24;;;;;;;40.78;26.30;;;;;;;3.41;80.20;99204.94;10354222;28;20152;-49
2023/12/18 10:26:23;;;;;;;41.03;27.63;;;;;;;3.26;80.02;99129.78;10360952;28;20135;-49
2023/12/18 10:31:23;;;;;;;31.70;21.48;;;;;;;3.95;81.23;99202.47;10363578;28;20102;-50
2023/12/18 10:36:23;;;;;;;20.38;12.98;;;;;;;3.70;77.69;99148.16;10365392;28;20129;-50
2023/12/18 10:41:23;;;;;;;24.23;15.35;;;;;;;4.09;75.89;99159.44;10364690;28;20044;-49
2023/12/18 10:46:25;;;;;;;25.30;15.90;;;;;;;4.37;76.52;99178.75;10363223;28;20866;-50
2023/12/18 10:51:25;;;;;;;35.90;22.58;;;;;;;4.28;74.84;99131.22;10360612;28;20068;-49
2023/12/18 10:56:25;;;;;;;28.95;18.45;;;;;;;4.20;72.53;99106.88;10363506;28;20089;-49
2023/12/18 11:01:25;;;;;;;32.80;20.10;;;;;;;4.79;72.88;99158.34;10361560;28;20044;-50
2023/12/18 11:06:25;;;;;;;30.55;21.60;;;;;;;4.82;72.44;99130.19;10362025;28;20112;-50
2023/12/18 11:11:26;;;;;;;31.15;20.48;;;;;;;5.02;72.88;99128.53;10359187;28;20099;-50
2023/12/18 11:16:30;;;;;;;31.30;20.08;;;;;;;5.32;74.68;99131.50;10363225;28;20059;-49
2023/12/18 11:21:33;;;;;;;33.67;22.38;;;;;;;5.31;72.24;99109.16;10362794;28;20076;-50
2023/12/18 11:26:52;;;;;;;36.65;23.98;;;;;;;5.64;72.34;99119.09;10364633;28;20124;-49
2023/12/18 11:31:53;;;;;;;39.58;24.10;;;;;;;5.79;74.00;99114.56;10353740;28;20120;-50
2023/12/18 11:36:52;;;;;;;48.05;30.50;;;;;;;6.05;70.70;99122.44;10361108;28;20095;-52
2023/12/18 11:41:51;;;;;;;43.47;29.70;;;;;;;6.26;71.72;99120.69;10360164;28;20025;-50
2023/12/18 11:46:50;;;;;;;44.70;30.00;;;;;;;6.38;70.34;99115.09;10361006;28;20029;-49
2023/12/18 11:51:49;;;;;;;41.47;29.40;;;;;;;6.58;73.04;99124.44;10363578;28;20820;-50
2023/12/18 11:56:50;;;;;;;;;;;;;;;6.81;73.13;99108.94;10356646;28;20500;-50
2023/12/18 12:01:51;;;;;;;48.25;31.95;;;;;;;6.95;70.27;99099.09;10362781;28;20007;-50
2023/12/18 12:06:50;;;;;;;53.83;31.42;;;;;;;6.90;71.46;99070.56;10363784;28;20107;-51
2023/12/18 12:11:49;;;;;;;43.08;30.17;;;;;;;7.03;71.56;99062.41;10361370;28;20100;-50
2023/12/18 12:17:01;;;;;;;40.28;27.67;;;;;;;7.02;70.68;99054.59;10370484;28;20025;-50
2023/12/18 12:22:01;;;;;;;28.33;19.60;;;;;;;7.22;71.55;99053.59;10370617;28;20179;-50
2023/12/18 12:27:00;;;;;;;27.40;19.20;;;;;;;7.24;71.35;99045.88;10369931;28;20116;-50
2023/12/18 12:31:59;;;;;;;27.17;18.35;;;;;;;7.16;72.32;99008.63;10367430;28;20116;-50
2023/12/18 12:37:02;;;;;;;24.88;18.55;;;;;;;7.26;73.28;99008.06;10367166;28;20464;-52
2023/12/18 12:42:01;;;;;;;24.45;16.85;;;;;;;7.61;71.11;99073.78;10366587;28;20140;-50
2023/12/18 12:47:00;;;;;;;25.40;18.98;;;;;;;7.22;70.05;98996.78;10363786;28;20605;-48
2023/12/18 12:51:59;;;;;;;28.38;20.25;;;;;;;7.71;71.21;99058.59;10366339;28;20099;-48
2023/12/18 12:56:58;;;;;;;25.77;19.08;;;;;;;7.86;70.84;99059.06;10364452;28;20103;-49
2023/12/18 13:01:57;;;;;;;21.77;16.83;;;;;;;7.62;70.36;99000.66;10367055;28;20076;-48
2023/12/18 13:06:56;;;;;;;23.45;17.55;;;;;;;8.05;69.79;99057.91;10367092;28;20028;-49
2023/12/18 13:11:55;;;;;;;24.15;17.80;;;;;;;8.14;68.41;99039.22;10368613;28;20086;-48
2023/12/18 13:16:53;;;;;;;26.70;19.15;;;;;;;8.21;68.87;99028.22;10368118;28;20044;-48
2023/12/18 13:21:52;;;;;;;28.73;22.20;;;;;;;8.38;69.57;99051.97;10366991;28;20128;-49
2023/12/18 13:26:51;;;;;;;38.33;25.15;;;;;;;7.58;69.04;98934.22;10366663;28;20028;-48
2023/12/18 13:31:50;;;;;;;30.98;20.23;;;;;;;8.27;69.27;99049.06;10364941;28;20404;-50
2023/12/18 13:36:50;;;;;;;40.03;22.95;;;;;;;8.19;67.55;99028.19;10364272;28;20133;-48
2023/12/18 13:41:54;;;;;;;67.43;34.63;;;;;;;8.16;68.61;99033.28;10364686;28;20212;-49
2023/12/18 13:46:54;;;;;;;61.22;31.77;;;;;;;8.15;68.71;99046.13;10362444;28;20147;-49
2023/12/18 13:51:53;;;;;;;42.33;26.40;;;;;;;8.11;68.82;99040.03;10367728;28;20631;-49
2023/12/18 13:56:52;;;;;;;33.92;23.00;;;;;;;7.80;69.25;99026.19;10367328;28;20464;-50
2023/12/18 14:01:51;;;;;;;40.83;24.77;;;;;;;7.74;69.45;99022.53;10365918;28;20061;-49
2023/12/18 14:06:50;;;;;;;42.03;24.98;;;;;;;7.76;70.61;99062.22;10364382;28;20033;-52
2023/12/18 14:11:50;;;;;;;36.83;23.50;;;;;;;7.33;70.68;99022.94;10365624;28;20824;-49
2023/12/18 14:16:49;;;;;;;34.08;21.33;;;;;;;7.21;71.33;99036.31;10367900;28;20128;-49
2023/12/18 14:21:48;;;;;;;31.48;21.65;;;;;;;7.05;71.80;99065.03;10367565;28;20037;-49
2023/12/18 14:26:47;;;;;;;45.45;28.08;;;;;;;6.56;74.80;99042.69;10367856;28;20048;-49
2023/12/18 14:31:46;;;;;;;47.47;31.98;;;;;;;6.22;75.21;99020.84;10365223;28;20032;-49
2023/12/18 14:36:45;;;;;;;44.28;26.77;;;;;;;6.11;75.99;99047.94;10365996;28;20024;-52
2023/12/18 14:41:44;;;;;;;39.95;26.02;;;;;;;6.10;75.59;99064.22;10366348;28;20091;-50
2023/12/18 14:46:43;;;;;;;41.83;27.13;;;;;;;5.79;76.40;99055.31;10366730;28;20083;-49
2023/12/18 14:51:42;;;;;;;36.65;26.10;;;;;;;5.61;76.74;99055.47;10366255;28;20028;-49
2023/12/18 14:56:41;;;;;;;37.88;25.38;;;;;;;5.25;76.89;99023.97;10366321;28;20108;-49
2023/12/18 15:01:40;;;;;;;38.80;26.00;;;;;;;4.99;77.69;99007.47;10366631;28;20116;-49
2023/12/18 15:06:39;;;;;;;39.33;26.75;;;;;;;5.17;77.69;99056.25;10366399;28;20056;-48
2023/12/18 15:11:40;;;;;;;45.60;28.48;;;;;;;5.01;79.16;99071.03;10366292;28;20486;-49
2023/12/18 15:16:40;;;;;;;38.35;26.98;;;;;;;4.90;79.23;99072.25;10366699;28;20087;-49
2023/12/18 15:21:39;;;;;;;43.75;29.27;;;;;;;4.48;80.36;99044.75;10322111;28;20144;-49
2023/12/18 15:26:38;;;;;;;45.63;29.10;;;;;;;4.34;81.24;99044.94;10325013;28;20112;-48
2023/12/18 15:31:37;;;;;;;52.53;35.35;;;;;;;3.80;82.02;99001.44;10323120;28;20037;-49
2023/12/18 15:36:36;;;;;;;49.10;34.70;;;;;;;4.15;81.94;99069.84;10322949;28;20018;-49
2023/12/18 15:41:37;;;;;;;;;;;;;;;4.10;82.91;99081.56;10325634;28;20061;-48
2023/12/18 15:46:36;;;;;;;47.70;31.42;;;;;;;3.76;82.64;99027.78;10324060;28;20041;-48
2023/12/18 15:51:35;;;;;;;58.95;36.97;;;;;;;3.71;83.03;99040.41;10324542;28;20129;-49
2023/12/18 15:56:34;;;;;;;63.58;38.75;;;;;;;3.80;82.92;99053.69;10318642;28;20084;-49
2023/12/18 16:01:33;;;;;;;57.70;37.00;;;;;;;3.78;83.36;99075.84;10324755;28;20108;-50
2023/12/18 16:06:32;;;;;;;72.05;42.38;;;;;;;3.53;83.66;99052.38;10325431;28;20036;-50
2023/12/18 16:11:30;;;;;;;63.40;37.67;;;;;;;3.56;84.28;99061.09;10324244;28;20120;-50
2023/12/18 16:16:29;;;;;;;74.50;43.40;;;;;;;3.41;84.18;99063.81;10325068;28;20472;-50
2023/12/18 16:21:30;;;;;;;96.30;52.42;;;;;;;3.32;84.30;99068.50;10324319;28;20473;-50
2023/12/18 16:26:34;;;;;;;95.20;54.17;;;;;;;3.13;84.34;99051.31;10323309;28;20128;-50
2023/12/18 16:31:33;;;;;;;110.53;58.40;;;;;;;3.09;84.71;99036.59;10323539;28;20108;-51
2023/12/18 16:36:32;;;;;;;91.28;52.33;;;;;;;3.23;84.86;99096.25;10323527;28;20060;-50
2023/12/18 16:41:34;;;;;;;100.53;57.75;;;;;;;2.52;85.53;98989.31;10322238;28;20035;-50
2023/12/18 16:46:33;;;;;;;98.85;57.80;;;;;;;3.03;85.40;99074.75;10323859;28;20120;-49
2023/12/18 16:51:32;;;;;;;101.53;57.67;;;;;;;2.39;86.15;98980.13;10323012;28;20031;-49
2023/12/18 16:56:31;;;;;;;91.30;48.53;;;;;;;2.85;86.35;99079.84;10324802;28;20097;-49
2023/12/18 17:01:30;;;;;;;62.40;37.33;;;;;;;2.53;86.50;99025.25;10330007;28;20108;-49
2023/12/18 17:06:29;;;;;;;88.18;53.15;;;;;;;2.52;86.71;99043.13;10333875;28;20112;-49
2023/12/18 17:11:28;;;;;;;105.18;61.53;;;;;;;2.13;87.01;98987.34;10331686;28;20528;-50
2023/12/18 17:16:27;;;;;;;105.47;64.05;;;;;;;2.65;87.21;99088.19;10331917;28;20040;-49
2023/12/18 17:21:26;;;;;;;109.78;63.17;;;;;;;2.45;86.85;99077.78;10330174;28;20065;-49
2023/12/18 17:26:27;;;;;;;127.38;76.80;;;;;;;2.39;87.03;99080.03;10330215;28;20129;-49
2023/12/18 17:31:29;;;;;;;122.68;71.78;;;;;;;2.47;86.80;99103.50;10329203;28;20067;-50
2023/12/18 17:36:28;;;;;;;139.07;81.78;;;;;;;1.89;87.14;99009.09;10330628;28;20068;-49
2023/12/18 17:41:28;;;;;;;163.32;96.82;;;;;;;2.17;86.74;99063.53;10330169;28;20576;-50
2023/12/18 17:46:27;;;;;;;156.80;94.18;;;;;;;2.23;86.95;99095.38;10330811;28;20496;-51
2023/12/18 17:51:27;;;;;;;185.45;109.60;;;;;;;1.60;87.21;98990.50;10331934;28;20521;-49
2023/12/18 17:56:25;;;;;;;185.93;110.95;;;;;;;2.10;86.88;99078.50;10330616;28;20061;-49
2023/12/18 18:01:24;;;;;;;186.02;109.47;;;;;;;1.89;87.42;99067.97;10329525;28;20113;-49
2023/12/18 18:06:24;;;;;;;179.38;108.38;;;;;;;1.96;86.96;99072.63;10328523;28;20056;-50
2023/12/18 18:11:23;;;;;;;197.75;113.45;;;;;;;1.24;87.10;98962.09;10327239;28;20479;-49
2023/12/18 18:16:22;;;;;;;206.40;119.05;;;;;;;1.64;87.41;99041.03;10327415;28;20053;-49
2023/12/18 18:21:21;;;;;;;189.38;109.10;;;;;;;1.62;88.10;99050.31;10328842;28;20060;-49
2023/12/18 18:26:20;;;;;;;180.23;107.15;;;;;;;1.21;87.83;98990.06;10328725;28;20033;-49
2023/12/18 18:31:19;;;;;;;183.57;111.00;;;;;;;1.58;87.94;99053.50;10328356;28;20580;-50
2023/12/18 18:36:20;;;;;;;189.07;115.28;;;;;;;1.26;88.41;99006.53;10328558;28;20377;-49
2023/12/18 18:41:19;;;;;;;181.15;112.90;;;;;;;1.45;88.30;99051.06;10326680;28;20146;-48
2023/12/18 18:46:18;;;;;;;182.77;112.05;;;;;;;1.43;88.25;99065.44;10328410;28;20378;-49
2023/12/18 18:51:16;;;;;;;168.23;104.65;;;;;;;1.18;88.79;99032.47;10328231;28;20037;-49
2023/12/18 18:56:15;;;;;;;170.75;107.60;;;;;;;1.23;88.41;99052.41;10327368;28;20040;-49
2023/12/18 19:01:14;;;;;;;146.68;93.53;;;;;;;1.04;88.56;99024.94;10327824;28;20037;-49
2023/12/18 19:06:13;;;;;;;92.47;57.28;;;;;;;1.21;89.19;99066.78;10327214;28;20040;-50
2023/12/18 19:11:13;;;;;;;85.72;50.08;;;;;;;1.13;88.85;99041.56;10326281;28;20033;-49
2023/12/18 19:16:15;;;;;;;77.95;46.30;;;;;;;1.01;89.17;99029.84;10325839;28;20057;-49
2023/12/18 19:21:13;;;;;;;83.00;48.67;;;;;;;1.08;89.16;99033.63;10326625;28;20072;-49
2023/12/18 19:26:12;;;;;;;92.43;55.53;;;;;;;0.90;89.22;99006.25;10326687;28;20219;-49
2023/12/18 19:31:12;;;;;;;100.53;56.95;;;;;;;1.17;89.31;99069.94;10326321;28;20112;-50
2023/12/18 19:36:14;;;;;;;;;;;;;;;1.07;89.82;99062.56;10327105;28;20060;-50
2023/12/18 19:41:19;;;;;;;172.20;90.90;;;;;;;0.67;89.72;98989.59;10326122;28;19979;-49
2023/12/18 19:46:18;;;;;;;161.25;91.82;;;;;;;0.84;89.22;99025.44;10325893;28;20108;-50
2023/12/18 19:51:17;;;;;;;262.52;153.18;;;;;;;0.93;89.26;99056.66;10326648;28;20028;-49
2023/12/18 19:56:18;;;;;;;232.90;136.02;;;;;;;0.84;89.83;99066.34;10325640;28;20061;-50
2023/12/18 20:01:18;;;;;;;198.40;116.00;;;;;;;0.56;89.47;99008.50;10326035;28;20056;-50
2023/12/18 20:06:17;;;;;;;159.07;100.82;;;;;;;0.55;89.66;99022.09;10325757;28;20061;-50
2023/12/18 20:11:18;;;;;;;155.30;96.63;;;;;;;0.67;89.69;99038.13;10323566;28;20040;-49
2023/12/18 20:16:17;;;;;;;132.07;80.82;;;;;;;0.65;89.70;99046.50;10324377;28;20136;-52
2023/12/18 20:21:15;;;;;;;136.18;82.78;;;;;;;0.65;89.78;99055.03;10325018;28;20057;-50
2023/12/18 20:26:14;;;;;;;162.27;104.22;;;;;;;0.30;89.82;98994.22;10324125;28;20412;-51
2023/12/18 20:31:13;;;;;;;143.15;87.07;;;;;;;0.38;90.02;99021.09;10323738;28;20049;-50
2023/12/18 20:36:12;;;;;;;134.70;82.30;;;;;;;0.62;89.89;99047.19;10330890;28;20120;-51
2023/12/18 20:41:12;;;;;;;165.93;95.82;;;;;;;0.41;89.98;99016.16;10333179;28;20068;-50
2023/12/18 20:46:11;;;;;;;178.52;104.00;;;;;;;0.48;90.16;99025.94;10332896;28;20476;-50
2023/12/18 20:51:10;;;;;;;196.77;115.55;;;;;;;0.45;90.11;99020.69;10332886;28;20512;-50
2023/12/18 20:56:09;;;;;;;186.85;112.15;;;;;;;-0.01;89.93;98938.81;10332377;28;20029;-50
2023/12/18 21:01:08;;;;;;;194.30;118.82;;;;;;;0.42;89.97;99022.16;10332412;28;21510;-50
2023/12/18 21:06:07;;;;;;;215.38;132.93;;;;;;;0.26;90.18;99015.25;10330437;28;20390;-52
2023/12/18 21:11:07;;;;;;;230.57;137.85;;;;;;;0.17;90.35;99009.59;10330644;28;20029;-51
2023/12/18 21:16:08;;;;;;;190.07;114.28;;;;;;;0.12;90.38;99008.44;10332067;28;20053;-50
2023/12/18 21:21:07;;;;;;;195.02;112.18;;;;;;;0.21;90.56;99034.50;10331194;28;20068;-50
2023/12/18 21:26:08;;;;;;;;;;;;;;;0.18;90.78;99017.34;10331296;28;20109;-51
2023/12/18 21:31:07;;;;;;;202.35;109.93;;;;;;;0.11;91.08;99030.53;10330095;28;20356;-51
2023/12/18 21:36:06;;;;;;;209.27;116.57;;;;;;;-0.20;91.06;98979.31;10329362;28;20504;-50
2023/12/18 21:41:05;;;;;;;221.43;122.43;;;;;;;0.07;90.99;99017.50;10329777;28;20515;-49
2023/12/18 21:46:04;;;;;;;194.95;108.57;;;;;;;-0.25;90.80;98961.19;10329414;28;20112;-52
2023/12/18 21:51:03;;;;;;;167.45;95.75;;;;;;;-0.21;90.85;98959.69;10328912;28;20049;-50
2023/12/18 21:56:02;;;;;;;193.60;111.22;;;;;;;0.02;90.78;99001.91;10327484;28;20656;-50
2023/12/18 22:01:02;;;;;;;203.23;122.57;;;;;;;-0.14;90.78;98977.13;10328763;28;20714;-52
2023/12/18 22:06:01;;;;;;;207.52;121.93;;;;;;;-0.64;90.93;98883.13;10329824;28;20132;-50
2023/12/18 22:11:00;;;;;;;206.98;120.47;;;;;;;-0.13;90.39;98975.44;10328491;28;20398;-50
2023/12/18 22:15:59;;;;;;;192.98;120.35;;;;;;;-0.24;90.50;98956.97;10325770;28;20116;-50
2023/12/18 22:20:58;;;;;;;212.77;128.18;;;;;;;-0.44;90.33;98928.59;10326782;28;20041;-50
2023/12/18 22:25:57;;;;;;;242.35;142.15;;;;;;;-0.85;90.28;98863.19;10327998;28;20044;-51
2023/12/18 22:30:56;;;;;;;236.30;136.45;;;;;;;-0.39;90.90;98957.78;10326920;28;20083;-50
2023/12/18 22:35:56;;;;;;;214.82;125.15;;;;;;;-0.22;91.05;98983.44;10327759;28;20464;-49
2023/12/18 22:40:55;;;;;;;243.52;138.70;;;;;;;-0.81;90.63;98870.25;10327079;28;20705;-50
2023/12/18 22:45:54;;;;;;;225.98;128.05;;;;;;;-0.39;90.73;98937.38;10326858;28;20049;-50
2023/12/18 22:50:53;;;;;;;203.02;111.05;;;;;;;-0.40;90.66;98935.59;10326335;28;20041;-50